createdAt,value
2017-12-13T00:02:10.871Z,83.38
2017-12-13T00:04:38.603Z,83.58
2017-12-13T00:07:06.226Z,83.48
2017-12-13T00:09:33.896Z,83.52
2017-12-13T00:12:01.559Z,83.52
2017-12-13T00:14:29.185Z,83.82
2017-12-13T00:16:56.807Z,84.38
2017-12-13T00:19:24.471Z,84.50
2017-12-13T00:21:52.084Z,84.44
2017-12-13T00:24:19.759Z,84.13
2017-12-13T00:26:47.466Z,83.84
2017-12-13T00:29:15.169Z,84.03
2017-12-13T00:31:42.855Z,84.04
2017-12-13T00:34:10.520Z,83.77
2017-12-13T00:36:38.140Z,83.80
2017-12-13T00:39:05.760Z,83.27
2017-12-13T00:41:33.480Z,82.94
2017-12-13T00:44:01.108Z,83.04
2017-12-13T00:46:28.728Z,82.89
2017-12-13T00:48:56.455Z,82.81
2017-12-13T00:51:24.075Z,82.72
2017-12-13T00:53:51.694Z,83.28
2017-12-13T00:56:19.428Z,83.23
2017-12-13T00:58:47.056Z,82.98
2017-12-13T01:01:14.683Z,83.00
2017-12-13T01:03:42.431Z,83.26
2017-12-13T01:06:10.046Z,83.51
2017-12-13T01:08:37.674Z,83.44
2017-12-13T01:11:05.419Z,83.30
2017-12-13T01:13:33.026Z,83.34
2017-12-13T01:16:00.642Z,83.54
2017-12-13T01:18:28.315Z,83.61
2017-12-13T01:20:55.943Z,83.60
2017-12-13T01:23:23.629Z,84.43
2017-12-13T01:25:51.295Z,84.50
2017-12-13T01:28:18.928Z,84.77
2017-12-13T01:30:46.551Z,84.68
2017-12-13T01:33:14.227Z,85.08
2017-12-13T01:35:53.727Z,85.01
2017-12-13T01:38:21.395Z,84.72
2017-12-13T01:40:49.019Z,85.59
2017-12-13T01:43:16.695Z,85.68
2017-12-13T01:45:44.388Z,85.92
2017-12-13T01:48:12.011Z,85.85
2017-12-13T01:50:39.700Z,85.69
2017-12-13T01:53:07.439Z,85.50
2017-12-13T01:55:35.059Z,85.32
2017-12-13T01:58:02.676Z,85.08
2017-12-13T02:00:30.339Z,84.90
2017-12-13T02:02:58.015Z,84.97
2017-12-13T02:05:25.627Z,85.50
2017-12-13T02:07:53.312Z,85.62
2017-12-13T02:10:20.991Z,85.43
2017-12-13T02:12:48.604Z,85.36
2017-12-13T02:15:16.275Z,85.38
2017-12-13T02:17:43.887Z,85.54
2017-12-13T02:20:11.503Z,85.56
2017-12-13T02:22:39.248Z,85.45
2017-12-13T02:25:06.875Z,85.58
2017-12-13T02:27:34.551Z,85.79
2017-12-13T02:30:02.224Z,85.74
2017-12-13T02:32:29.830Z,85.86
2017-12-13T02:34:57.463Z,85.95
2017-12-13T02:37:25.127Z,85.90
2017-12-13T02:40:04.535Z,86.12
2017-12-13T02:42:32.203Z,86.10
2017-12-13T02:44:59.881Z,86.19
2017-12-13T02:47:27.506Z,86.46
2017-12-13T02:49:55.179Z,86.36
2017-12-13T02:52:22.803Z,86.27
2017-12-13T02:54:50.545Z,86.12
2017-12-13T02:57:18.219Z,85.85
2017-12-13T02:59:45.973Z,86.11
2017-12-13T03:02:13.614Z,86.50
2017-12-13T03:04:41.344Z,86.63
2017-12-13T03:07:08.979Z,86.41
2017-12-13T03:09:36.611Z,86.22
2017-12-13T03:12:04.356Z,86.00
2017-12-13T03:14:31.979Z,85.83
2017-12-13T03:16:59.656Z,85.54
2017-12-13T03:19:27.392Z,85.97
2017-12-13T03:21:55.076Z,86.58
2017-12-13T03:24:22.756Z,86.29
2017-12-13T03:26:50.491Z,85.94
2017-12-13T03:29:18.100Z,86.02
2017-12-13T03:31:45.768Z,85.96
2017-12-13T03:34:13.505Z,85.87
2017-12-13T03:36:41.127Z,85.68
2017-12-13T03:39:08.791Z,85.51
2017-12-13T03:41:36.455Z,85.41
2017-12-13T03:44:04.070Z,85.39
2017-12-13T03:46:31.683Z,85.56
2017-12-13T03:48:59.358Z,85.76
2017-12-13T03:51:26.963Z,86.29
2017-12-13T03:53:54.595Z,86.66
2017-12-13T03:56:22.263Z,86.73
2017-12-13T03:58:49.880Z,86.95
2017-12-13T04:01:17.495Z,87.00
2017-12-13T04:03:45.183Z,86.77
2017-12-13T04:06:12.820Z,86.89
2017-12-13T04:08:40.483Z,87.03
2017-12-13T04:11:08.142Z,87.15
2017-12-13T04:13:35.752Z,87.42
2017-12-13T04:16:03.439Z,87.20
2017-12-13T04:18:31.103Z,87.53
2017-12-13T04:20:58.715Z,87.62
2017-12-13T04:23:26.384Z,87.44
2017-12-13T04:25:54.075Z,87.55
2017-12-13T04:28:21.739Z,87.24
2017-12-13T04:30:49.407Z,87.10
2017-12-13T04:33:17.063Z,86.87
2017-12-13T04:35:44.732Z,86.64
2017-12-13T04:38:12.342Z,86.54
2017-12-13T04:40:40.028Z,86.21
2017-12-13T04:43:07.699Z,85.59
2017-12-13T04:45:35.321Z,85.51
2017-12-13T04:48:02.990Z,85.56
2017-12-13T04:50:30.596Z,85.85
2017-12-13T04:52:58.220Z,86.22
2017-12-13T04:55:25.902Z,86.39
2017-12-13T04:57:53.520Z,86.65
2017-12-13T05:00:21.147Z,86.86
2017-12-13T05:02:48.818Z,86.91
2017-12-13T05:05:16.496Z,87.18
2017-12-13T05:07:44.108Z,87.32
2017-12-13T05:10:11.805Z,87.45
2017-12-13T05:12:39.419Z,87.46
2017-12-13T05:15:07.038Z,87.91
2017-12-13T05:17:34.727Z,87.78
2017-12-13T05:20:02.358Z,87.03
2017-12-13T05:22:30.059Z,87.03
2017-12-13T05:24:57.731Z,87.58
2017-12-13T05:27:25.347Z,88.05
2017-12-13T05:29:53.019Z,88.15
2017-12-13T05:32:20.698Z,88.02
2017-12-13T05:34:48.315Z,87.78
2017-12-13T05:37:15.943Z,87.69
2017-12-13T05:39:43.614Z,87.67
2017-12-13T05:42:11.296Z,87.29
2017-12-13T05:44:38.932Z,87.31
2017-12-13T05:47:06.668Z,87.07
2017-12-13T05:49:34.288Z,86.62
2017-12-13T05:52:01.907Z,86.18
2017-12-13T05:54:29.607Z,86.10
2017-12-13T05:56:57.299Z,86.50
2017-12-13T05:59:24.971Z,86.49
2017-12-13T06:01:52.629Z,85.62
2017-12-13T06:04:20.321Z,85.03
2017-12-13T06:06:47.946Z,84.44
2017-12-13T06:09:15.629Z,84.37
2017-12-13T06:11:43.243Z,84.45
2017-12-13T06:14:10.923Z,84.50
2017-12-13T06:16:38.615Z,84.48
2017-12-13T06:19:06.231Z,84.59
2017-12-13T06:21:33.941Z,84.50
2017-12-13T06:24:01.619Z,84.33
2017-12-13T06:26:29.247Z,83.83
2017-12-13T06:28:56.863Z,83.46
2017-12-13T06:31:24.595Z,83.20
2017-12-13T06:33:52.283Z,82.96
2017-12-13T06:36:19.906Z,82.53
2017-12-13T06:38:47.579Z,82.23
2017-12-13T06:41:15.191Z,81.72
2017-12-13T06:43:42.880Z,80.96
2017-12-13T06:46:10.557Z,80.61
2017-12-13T06:48:38.175Z,79.94
2017-12-13T06:51:05.847Z,79.75
2017-12-13T06:53:33.580Z,79.58
2017-12-13T06:56:01.255Z,79.52
2017-12-13T06:58:28.928Z,79.13
2017-12-13T07:00:56.599Z,79.68
2017-12-13T07:03:24.218Z,79.86
2017-12-13T07:05:51.834Z,78.04
2017-12-13T07:08:19.555Z,77.90
2017-12-13T07:10:47.162Z,78.14
2017-12-13T07:13:14.792Z,78.06
2017-12-13T07:15:42.463Z,77.20
2017-12-13T07:18:10.087Z,76.79
2017-12-13T07:20:37.715Z,76.75
2017-12-13T07:23:05.402Z,76.53
2017-12-13T07:25:33.019Z,75.97
2017-12-13T07:28:00.657Z,75.70
2017-12-13T07:30:28.330Z,75.91
2017-12-13T07:32:55.947Z,75.28
2017-12-13T07:35:23.566Z,75.36
2017-12-13T07:37:51.288Z,74.82
2017-12-13T07:40:18.906Z,74.36
2017-12-13T07:42:46.510Z,74.10
2017-12-13T07:45:14.183Z,73.76
2017-12-13T07:47:41.806Z,73.33
2017-12-13T07:50:09.411Z,72.81
2017-12-13T07:52:37.139Z,73.11
2017-12-13T07:55:04.759Z,72.79
2017-12-13T07:57:32.435Z,72.82
2017-12-13T08:00:00.156Z,73.25
2017-12-13T08:02:27.832Z,73.44
2017-12-13T08:04:55.570Z,73.01
2017-12-13T08:07:23.290Z,73.22
2017-12-13T08:09:50.909Z,72.85
2017-12-13T08:12:18.527Z,72.70
2017-12-13T08:14:46.195Z,72.84
2017-12-13T08:17:13.890Z,72.36
2017-12-13T08:19:41.568Z,72.32
2017-12-13T08:22:09.299Z,72.21
2017-12-13T08:24:36.940Z,71.76
2017-12-13T08:27:04.556Z,71.77
2017-12-13T08:29:32.231Z,71.75
2017-12-13T08:31:59.911Z,71.09
2017-12-13T08:34:27.600Z,71.07
2017-12-13T08:36:55.367Z,70.68
2017-12-13T08:39:23.041Z,69.90
2017-12-13T08:41:50.661Z,69.47
2017-12-13T08:44:18.336Z,68.80
2017-12-13T08:46:45.959Z,68.74
2017-12-13T08:49:13.636Z,67.78
2017-12-13T08:51:41.403Z,66.51
2017-12-13T08:54:09.034Z,65.46
2017-12-13T08:56:36.646Z,64.25
2017-12-13T08:59:04.326Z,63.87
2017-12-13T09:01:31.943Z,63.63
2017-12-13T09:03:59.626Z,63.99
2017-12-13T09:06:27.299Z,63.27
2017-12-13T09:08:54.988Z,62.81
2017-12-13T09:11:22.610Z,62.92
2017-12-13T09:13:50.355Z,62.97
2017-12-13T09:16:17.967Z,62.40
2017-12-13T09:18:45.645Z,61.80
2017-12-13T09:21:13.315Z,62.09
2017-12-13T09:23:40.940Z,62.97
2017-12-13T09:26:08.553Z,62.94
2017-12-13T09:28:36.354Z,62.81
2017-12-13T09:31:04.039Z,62.61
2017-12-13T09:33:31.663Z,60.88
2017-12-13T09:36:00.423Z,58.86
2017-12-13T09:38:28.031Z,58.43
2017-12-13T09:40:55.646Z,57.87
2017-12-13T09:43:23.320Z,56.68
2017-12-13T09:45:50.992Z,56.44
2017-12-13T09:48:18.625Z,55.66
2017-12-13T09:50:46.295Z,55.46
2017-12-13T09:53:13.972Z,55.88
2017-12-13T09:55:41.592Z,56.57
2017-12-13T09:58:09.336Z,55.77
2017-12-13T10:00:37.062Z,55.46
2017-12-13T10:03:04.684Z,55.51
2017-12-13T10:05:32.355Z,54.00
2017-12-13T10:07:59.971Z,52.79
2017-12-13T10:10:27.584Z,52.75
2017-12-13T10:12:55.253Z,52.75
2017-12-13T10:15:22.864Z,52.95
2017-12-13T10:17:50.475Z,52.50
2017-12-13T10:20:18.127Z,51.94
2017-12-13T10:22:45.739Z,51.73
2017-12-13T10:25:13.348Z,50.86
2017-12-13T10:27:41.035Z,49.46
2017-12-13T10:30:08.709Z,48.86
2017-12-13T10:32:36.335Z,50.08
2017-12-13T10:35:04.062Z,50.52
2017-12-13T10:37:31.683Z,50.80
2017-12-13T10:39:59.311Z,51.44
2017-12-13T10:42:26.987Z,50.93
2017-12-13T10:44:54.608Z,51.67
2017-12-13T10:47:22.239Z,51.39
2017-12-13T10:49:49.975Z,51.90
2017-12-13T10:52:17.595Z,51.45
2017-12-13T10:54:45.267Z,51.10
2017-12-13T10:57:12.999Z,50.86
2017-12-13T10:59:40.614Z,50.24
2017-12-13T11:02:08.335Z,51.00
2017-12-13T11:04:36.014Z,51.11
2017-12-13T11:07:03.645Z,51.46
2017-12-13T11:09:31.343Z,51.48
2017-12-13T11:11:59.037Z,52.76
2017-12-13T11:14:26.671Z,52.93
2017-12-13T11:16:54.287Z,53.32
2017-12-13T11:19:21.964Z,53.91
2017-12-13T11:21:49.645Z,54.84
2017-12-13T11:24:17.319Z,54.36
2017-12-13T11:26:45.001Z,54.50
2017-12-13T11:29:12.668Z,54.47
2017-12-13T11:31:40.295Z,53.55
2017-12-13T11:34:07.963Z,53.34
2017-12-13T11:36:35.656Z,53.35
2017-12-13T11:39:03.342Z,53.72
2017-12-13T11:41:31.068Z,54.24
2017-12-13T11:43:58.747Z,55.59
2017-12-13T11:46:26.378Z,55.35
2017-12-13T11:48:54.055Z,56.16
2017-12-13T11:51:21.677Z,55.79
2017-12-13T11:53:49.296Z,55.69
2017-12-13T11:56:17.001Z,55.79
2017-12-13T11:58:44.627Z,56.11
2017-12-13T12:01:12.263Z,56.75
2017-12-13T12:03:39.931Z,56.34
2017-12-13T12:06:08.424Z,56.34
2017-12-13T12:08:36.026Z,56.70
2017-12-13T12:11:03.768Z,56.63
2017-12-13T12:13:31.386Z,56.89
2017-12-13T12:15:59.090Z,57.09
2017-12-13T12:18:26.765Z,56.90
2017-12-13T12:20:54.382Z,57.05
2017-12-13T12:23:22.003Z,57.66
2017-12-13T12:25:49.732Z,57.57
2017-12-13T12:28:17.412Z,57.91
2017-12-13T12:30:45.031Z,57.68
2017-12-13T12:33:12.755Z,57.50
2017-12-13T12:35:40.383Z,57.70
2017-12-13T12:38:08.059Z,57.88
2017-12-13T12:40:35.730Z,58.00
2017-12-13T12:43:03.350Z,58.60
2017-12-13T12:45:30.968Z,59.26
2017-12-13T12:47:58.644Z,60.18
2017-12-13T12:50:26.328Z,61.49
2017-12-13T12:52:54.004Z,62.04
2017-12-13T12:55:21.731Z,62.76
2017-12-13T12:57:49.363Z,63.03
2017-12-13T13:00:16.991Z,63.32
2017-12-13T13:02:44.659Z,63.45
2017-12-13T13:05:12.275Z,63.71
2017-12-13T13:07:39.882Z,63.95
2017-12-13T13:10:07.604Z,64.38
2017-12-13T13:12:35.287Z,64.79
2017-12-13T13:15:02.964Z,65.07
2017-12-13T13:17:30.635Z,65.70
2017-12-13T13:19:58.259Z,65.74
2017-12-13T13:22:25.899Z,65.73
2017-12-13T13:24:53.571Z,65.95
2017-12-13T13:27:21.252Z,66.27
2017-12-13T13:29:48.879Z,66.60
2017-12-13T13:32:16.633Z,67.17
2017-12-13T13:34:44.321Z,67.35
2017-12-13T13:37:11.995Z,67.55
2017-12-13T13:39:39.667Z,68.03
2017-12-13T13:42:07.348Z,68.43
2017-12-13T13:44:34.956Z,68.97
2017-12-13T13:47:02.647Z,69.99
2017-12-13T13:49:30.284Z,69.96
2017-12-13T13:51:57.911Z,70.50
2017-12-13T13:54:25.577Z,70.81
2017-12-13T13:56:53.275Z,71.57
2017-12-13T13:59:20.906Z,71.47
2017-12-13T14:01:48.577Z,71.75
2017-12-13T14:04:16.199Z,72.44
2017-12-13T14:06:43.828Z,73.02
2017-12-13T14:09:11.556Z,73.10
2017-12-13T14:11:39.191Z,73.26
2017-12-13T14:14:06.808Z,73.46
2017-12-13T14:16:34.546Z,73.73
2017-12-13T14:19:02.223Z,73.73
2017-12-13T14:21:29.907Z,73.70
2017-12-13T14:23:57.651Z,73.77
2017-12-13T14:26:25.278Z,74.31
2017-12-13T14:28:52.914Z,74.57
2017-12-13T14:31:20.657Z,75.17
2017-12-13T14:33:48.286Z,75.54
2017-12-13T14:36:15.910Z,75.56
2017-12-13T14:38:43.575Z,75.91
2017-12-13T14:41:11.206Z,76.29
2017-12-13T14:43:38.908Z,76.61
2017-12-13T14:46:06.644Z,76.91
2017-12-13T14:48:34.334Z,77.00
2017-12-13T14:51:01.999Z,77.07
2017-12-13T14:53:29.714Z,77.74
2017-12-13T14:55:57.334Z,78.63
2017-12-13T14:58:24.971Z,78.63
2017-12-13T15:00:52.673Z,78.97
2017-12-13T15:03:20.313Z,79.01
2017-12-13T15:05:47.941Z,78.87
2017-12-13T15:08:15.615Z,78.65
2017-12-13T15:10:43.303Z,78.34
2017-12-13T15:13:10.935Z,77.20
2017-12-13T15:15:38.663Z,76.58
2017-12-13T15:18:06.294Z,75.70
2017-12-13T15:20:33.978Z,75.57
2017-12-13T15:23:01.659Z,75.29
2017-12-13T15:25:29.353Z,75.75
2017-12-13T15:27:57.041Z,75.75
2017-12-13T15:30:24.714Z,76.07
2017-12-13T15:32:52.331Z,76.39
2017-12-13T15:35:20.012Z,75.99
2017-12-13T15:37:47.775Z,75.44
2017-12-13T15:40:15.410Z,75.44
2017-12-13T15:42:43.107Z,75.48
2017-12-13T15:45:10.787Z,75.98
2017-12-13T15:47:38.416Z,76.10
2017-12-13T15:50:06.066Z,76.33
2017-12-13T15:52:33.734Z,76.71
2017-12-13T15:55:01.356Z,76.86
2017-12-13T15:57:28.981Z,76.57
2017-12-13T15:59:56.721Z,76.76
2017-12-13T16:02:24.408Z,76.76
2017-12-13T16:04:52.091Z,77.05
2017-12-13T16:07:19.844Z,77.02
2017-12-13T16:09:47.519Z,77.12
2017-12-13T16:12:15.151Z,77.01
2017-12-13T16:14:42.915Z,77.28
2017-12-13T16:17:10.531Z,77.41
2017-12-13T16:19:38.147Z,77.55
2017-12-13T16:22:05.947Z,77.02
2017-12-13T16:24:33.583Z,76.95
2017-12-13T16:27:01.215Z,77.14
2017-12-13T16:29:28.907Z,77.26
2017-12-13T16:31:56.571Z,77.23
2017-12-13T16:34:24.211Z,77.15
2017-12-13T16:36:51.939Z,77.63
2017-12-13T16:39:19.560Z,77.67
2017-12-13T16:41:47.175Z,77.34
2017-12-13T16:44:14.872Z,77.03
2017-12-13T16:46:42.515Z,76.82
2017-12-13T16:49:10.195Z,76.67
2017-12-13T16:51:37.927Z,76.62
2017-12-13T16:54:05.548Z,76.90
2017-12-13T16:56:33.168Z,76.83
2017-12-13T16:59:00.845Z,77.34
2017-12-13T17:01:28.528Z,77.40
2017-12-13T17:03:56.152Z,77.36
2017-12-13T17:06:23.888Z,77.34
2017-12-13T17:08:51.510Z,77.36
2017-12-13T17:11:19.138Z,77.48
2017-12-13T17:13:46.836Z,78.04
2017-12-13T17:16:14.515Z,77.82
2017-12-13T17:18:42.145Z,77.37
2017-12-13T17:21:09.830Z,76.94
2017-12-13T17:23:37.457Z,76.71
2017-12-13T17:26:05.151Z,77.27
2017-12-13T17:28:32.831Z,78.29
2017-12-13T17:31:00.462Z,78.86
2017-12-13T17:33:28.099Z,79.39
2017-12-13T17:35:55.810Z,79.13
2017-12-13T17:38:23.497Z,79.49
2017-12-13T17:40:51.206Z,79.66
2017-12-13T17:43:18.948Z,79.40
2017-12-13T17:45:46.640Z,79.00
2017-12-13T17:48:14.263Z,78.75
2017-12-13T17:50:41.961Z,78.83
2017-12-13T17:53:09.649Z,78.65
2017-12-13T17:55:37.304Z,78.87
2017-12-13T17:58:04.996Z,78.69
2017-12-13T18:00:32.675Z,78.44
2017-12-13T18:03:00.357Z,78.58
2017-12-13T18:05:28.039Z,78.87
2017-12-13T18:07:55.662Z,78.89
2017-12-13T18:10:23.336Z,78.68
2017-12-13T18:12:51.017Z,78.77
2017-12-13T18:15:18.663Z,78.51
2017-12-13T18:17:46.279Z,77.70
2017-12-13T18:20:14.036Z,78.25
2017-12-13T18:22:41.690Z,78.20
2017-12-13T18:25:09.311Z,78.71
2017-12-13T18:27:37.071Z,79.18
2017-12-13T18:30:04.717Z,79.22
2017-12-13T18:32:32.475Z,79.23
2017-12-13T18:35:00.156Z,79.33
2017-12-13T18:37:27.823Z,79.04
2017-12-13T18:39:55.453Z,78.76
2017-12-13T18:42:23.198Z,79.07
2017-12-13T18:44:50.822Z,78.98
2017-12-13T18:47:18.447Z,79.27
2017-12-13T18:49:46.198Z,79.77
2017-12-13T18:52:13.831Z,79.92
2017-12-13T18:54:41.475Z,79.71
2017-12-13T18:57:09.221Z,79.46
2017-12-13T18:59:36.967Z,79.50
2017-12-13T19:02:04.583Z,79.50
2017-12-13T19:04:32.307Z,79.58
2017-12-13T19:07:00.000Z,79.37
2017-12-13T19:09:27.632Z,79.22
2017-12-13T19:11:55.388Z,78.98
2017-12-13T19:14:23.073Z,78.60
2017-12-13T19:16:50.754Z,78.54
2017-12-13T19:19:18.475Z,78.86
2017-12-13T19:21:46.156Z,79.34
2017-12-13T19:24:13.833Z,79.57
2017-12-13T19:26:41.564Z,79.66
2017-12-13T19:29:09.276Z,79.54
2017-12-13T19:31:36.902Z,79.38
2017-12-13T19:34:04.682Z,79.37
2017-12-13T19:36:32.379Z,79.40
2017-12-13T19:39:00.012Z,78.95
2017-12-13T19:41:27.770Z,78.87
2017-12-13T19:43:55.385Z,78.90
2017-12-13T19:46:23.019Z,78.87
2017-12-13T19:48:50.708Z,78.87
2017-12-13T19:51:18.333Z,78.28
2017-12-13T19:53:45.947Z,77.68
2017-12-13T19:56:13.700Z,77.45
2017-12-13T19:58:41.319Z,77.25
2017-12-13T20:01:08.979Z,77.18
2017-12-13T20:03:36.682Z,77.19
2017-12-13T20:06:04.312Z,77.08
2017-12-13T20:08:31.931Z,77.19
2017-12-13T20:10:59.684Z,77.97
2017-12-13T20:13:27.300Z,77.76
2017-12-13T20:15:54.936Z,77.55
2017-12-13T20:18:22.678Z,77.72
2017-12-13T20:20:50.365Z,77.65
2017-12-13T20:23:17.996Z,77.78
2017-12-13T20:25:45.696Z,78.02
2017-12-13T20:28:13.310Z,78.12
2017-12-13T20:30:40.911Z,77.87
2017-12-13T20:33:08.640Z,77.91
2017-12-13T20:35:36.319Z,77.60
2017-12-13T20:38:03.936Z,77.52
2017-12-13T20:40:31.665Z,77.86
2017-12-13T20:42:59.345Z,77.85
2017-12-13T20:45:27.032Z,77.90
2017-12-13T20:47:54.718Z,78.29
2017-12-13T20:50:22.331Z,78.46
2017-12-13T20:52:49.948Z,78.60
2017-12-13T20:55:17.628Z,79.00
2017-12-13T20:57:45.316Z,79.21
2017-12-13T21:00:12.932Z,79.45
2017-12-13T21:02:40.642Z,79.75
2017-12-13T21:05:08.254Z,79.79
2017-12-13T21:07:35.871Z,79.93
2017-12-13T21:10:03.546Z,79.73
2017-12-13T21:12:31.241Z,79.67
2017-12-13T21:14:58.863Z,79.76
2017-12-13T21:17:26.561Z,79.70
2017-12-13T21:19:54.237Z,79.40
2017-12-13T21:22:21.868Z,79.06
2017-12-13T21:24:49.543Z,79.34
2017-12-13T21:27:17.146Z,78.06
2017-12-13T21:29:44.768Z,77.28
2017-12-13T21:32:12.444Z,77.65
2017-12-13T21:34:40.059Z,78.27
2017-12-13T21:37:07.729Z,78.64
2017-12-13T21:39:35.419Z,78.82
2017-12-13T21:42:03.034Z,78.96
2017-12-13T21:44:30.703Z,78.77
2017-12-13T21:46:58.368Z,78.49
2017-12-13T21:49:26.059Z,78.04
2017-12-13T21:51:53.665Z,77.90
2017-12-13T21:54:21.402Z,77.50
2017-12-13T21:56:49.084Z,77.30
2017-12-13T21:59:16.772Z,77.09
2017-12-13T22:01:44.496Z,76.98
2017-12-13T22:04:12.117Z,77.13
2017-12-13T22:06:39.810Z,77.36
2017-12-13T22:09:07.467Z,77.60
2017-12-13T22:11:35.084Z,78.10
2017-12-13T22:14:02.709Z,78.31
2017-12-13T22:16:30.375Z,78.42
2017-12-13T22:18:58.042Z,78.32
2017-12-13T22:21:25.711Z,78.37
2017-12-13T22:23:53.375Z,78.26
2017-12-13T22:26:20.987Z,78.83
2017-12-13T22:28:48.610Z,78.85
2017-12-13T22:31:16.286Z,78.83
2017-12-13T22:33:43.904Z,79.05
2017-12-13T22:36:11.514Z,78.90
2017-12-13T22:38:39.195Z,78.99
2017-12-13T22:41:06.825Z,79.09
2017-12-13T22:43:34.436Z,79.46
2017-12-13T22:46:02.192Z,78.98
2017-12-13T22:48:29.817Z,78.92
2017-12-13T22:50:57.537Z,78.98
2017-12-13T22:53:25.244Z,78.99
2017-12-13T22:55:52.980Z,79.34
2017-12-13T22:58:20.595Z,79.35
2017-12-13T23:00:52.173Z,79.39
2017-12-13T23:03:19.796Z,79.31
2017-12-13T23:05:47.492Z,79.36
2017-12-13T23:08:15.172Z,79.49
2017-12-13T23:10:42.793Z,79.48
2017-12-13T23:13:10.472Z,79.67
2017-12-13T23:15:38.140Z,79.73
2017-12-13T23:18:05.807Z,79.66
2017-12-13T23:20:33.478Z,79.72
2017-12-13T23:23:01.175Z,79.42
2017-12-13T23:25:28.892Z,79.15
2017-12-13T23:27:56.511Z,78.84
2017-12-13T23:30:24.188Z,79.00
2017-12-13T23:32:51.870Z,79.07
2017-12-13T23:35:19.484Z,78.69
2017-12-13T23:37:47.155Z,78.68
2017-12-13T23:40:14.824Z,78.53
2017-12-13T23:42:42.442Z,78.62
2017-12-13T23:45:10.106Z,78.61
2017-12-13T23:47:37.777Z,78.79
2017-12-13T23:50:05.455Z,78.52
2017-12-13T23:52:33.130Z,78.42
2017-12-13T23:55:00.744Z,78.37
2017-12-13T23:57:28.360Z,78.39
2017-12-13T23:59:56.038Z,78.92
